EHWO/WOE METAR and TAF weather

Enter ICAO airport designator
Station Type Date Time Source
EHWO METAR 2019/02/23 22:55 UTC NOAA

EHWO 232255Z AUTO 11005KT 9999 NCD 06/01 Q1035 BLU


Station Type Date Time Source
EHWO Decoded METAR 2019/02/23 22:55 UTC NOAA

Woensdrecht, Netherlands (EHWO) 51-27N 004-20E 17M
Feb 23, 2019 - 05:55 PM EST / 2019.02.23 2255 UTC
Wind: from the ESE (110 degrees) at 6 MPH (5 KT):0
Visibility: greater than 7 mile(s):0
Temperature: 42 F (6 C)
Dew Point: 33 F (1 C)
Relative Humidity: 70%
Pressure (altimeter): 30.56 in. Hg (1035 hPa)
ob: EHWO 232255Z AUTO 11005KT 9999 NCD 06/01 Q1035 BLU
cycle: 23

Station Type Date Time Source
EHWO TAF 2019/02/22 10:54 UTC NOAA

TAF TAF EHWO 221147Z 2210/2222 CNL


Example: see airport list